Time;durP1;ratioP1;P1;durP2;ratioP2;P2;SDS_P1;SDS_P2;PMS_P1;PMS_P2;Temp;Humidity;BMP_temperature;BMP_pressure;BME280_temperature;BME280_humidity;BME280_pressure;Samples;Min_cycle;Max_cycle;Signal;HPM_P1;HPM_P2
2022/08/07 00:02:01;;;;;;;0.85;0.55;;;;;;;16.30;42.08;96437.38;5056005;28;24443;-72
2022/08/07 00:04:27;;;;;;;1.67;0.50;;;;;;;16.42;42.28;96433.81;5066668;28;24788;-72
2022/08/07 00:06:54;;;;;;;1.17;0.60;;;;;;;16.49;44.36;96435.03;5057931;28;24502;-72
2022/08/07 00:09:21;;;;;;;1.27;0.57;;;;;;;16.35;44.84;96432.63;5063260;28;24952;-72
2022/08/07 00:11:49;;;;;;;2.97;0.50;;;;;;;16.04;45.05;96434.09;5057896;28;24848;-72
2022/08/07 00:14:16;;;;;;;2.30;0.50;;;;;;;15.94;45.39;96428.69;5066581;28;24431;-72
2022/08/07 00:16:42;;;;;;;1.30;0.57;;;;;;;15.87;45.42;96435.31;5056265;28;25056;-72
2022/08/07 00:19:08;;;;;;;1.30;0.50;;;;;;;15.86;45.25;96428.44;5056687;28;24550;-72
2022/08/07 00:21:35;;;;;;;1.08;0.55;;;;;;;15.75;44.31;96433.59;5056336;28;24457;-71
2022/08/07 00:24:01;;;;;;;2.40;0.68;;;;;;;15.85;44.90;96432.81;5064483;28;24445;-72
2022/08/07 00:26:28;;;;;;;1.30;0.60;;;;;;;15.79;44.30;96428.03;5062344;28;24447;-72
2022/08/07 00:28:55;;;;;;;1.65;0.68;;;;;;;15.94;43.93;96426.94;5063168;28;24426;-72
2022/08/07 00:31:24;;;;;;;2.53;0.50;;;;;;;15.91;44.17;96427.16;5053367;28;24535;-72
2022/08/07 00:33:51;;;;;;;1.98;0.70;;;;;;;15.73;43.73;96431.13;5060677;28;24439;-71
2022/08/07 00:36:17;;;;;;;1.50;0.60;;;;;;;15.41;44.80;96429.00;5062285;28;24996;-71
2022/08/07 00:38:44;;;;;;;1.38;0.60;;;;;;;15.52;45.08;96432.63;5063199;28;25038;-72
2022/08/07 00:41:10;;;;;;;2.00;0.70;;;;;;;15.67;45.22;96435.00;5058973;28;25002;-72
2022/08/07 00:43:37;;;;;;;1.70;0.65;;;;;;;15.81;45.58;96439.22;5061934;28;24430;-72
2022/08/07 00:46:05;;;;;;;1.20;0.40;;;;;;;15.75;46.01;96437.03;5060442;28;24850;-72
2022/08/07 00:48:31;;;;;;;1.58;0.65;;;;;;;15.77;46.75;96424.72;5051902;28;24998;-71
2022/08/07 00:50:58;;;;;;;4.10;0.43;;;;;;;15.61;47.09;96429.34;5053089;28;25061;-72
2022/08/07 00:53:25;;;;;;;1.47;0.60;;;;;;;15.53;47.86;96429.06;5053677;28;25002;-72
2022/08/07 00:55:51;;;;;;;1.90;0.70;;;;;;;15.29;48.10;96424.69;5060962;28;24439;-72
2022/08/07 00:58:20;;;;;;;0.70;0.40;;;;;;;15.28;48.02;96423.03;5054690;28;24823;-72
2022/08/07 01:00:47;;;;;;;2.15;0.60;;;;;;;15.22;48.04;96428.66;5052860;28;25056;-71
2022/08/07 01:03:15;;;;;;;1.13;0.57;;;;;;;15.06;47.09;96423.69;5049910;28;24851;-72
2022/08/07 01:05:43;;;;;;;0.80;0.52;;;;;;;15.00;47.25;96411.06;5056175;28;24438;-72
2022/08/07 01:08:09;;;;;;;1.55;0.68;;;;;;;15.18;47.61;96411.56;5057113;28;24435;-72
2022/08/07 01:10:37;;;;;;;1.80;0.68;;;;;;;15.25;47.62;96410.19;5053014;28;24504;-72
2022/08/07 01:13:04;;;;;;;2.60;1.42;;;;;;;15.19;47.30;96408.00;5057270;28;24442;-72
2022/08/07 01:15:33;;;;;;;1.23;0.70;;;;;;;14.62;48.18;96411.97;5050757;28;24796;-72
2022/08/07 01:18:00;;;;;;;4.10;0.88;;;;;;;14.23;49.50;96405.88;5052506;28;24465;-72
2022/08/07 01:20:33;;;;;;;1.33;0.50;;;;;;;14.06;50.24;96411.41;5054873;28;25026;-71
2022/08/07 01:23:01;;;;;;;1.17;0.65;;;;;;;14.38;50.05;96406.59;5057690;28;24843;-72
2022/08/07 01:25:28;;;;;;;0.87;0.60;;;;;;;14.36;49.41;96411.09;5060992;28;24442;-72
2022/08/07 01:27:55;;;;;;;2.22;0.60;;;;;;;14.21;49.93;96410.38;5058676;28;24844;-71
2022/08/07 01:30:24;;;;;;;0.70;0.60;;;;;;;14.50;50.08;96399.78;5050568;28;24500;-72
2022/08/07 01:32:50;;;;;;;2.17;0.95;;;;;;;14.56;49.45;96403.72;5057451;28;24536;-71
2022/08/07 01:35:17;;;;;;;1.85;0.60;;;;;;;14.74;50.44;96403.28;5059833;28;24442;-71
2022/08/07 01:37:44;;;;;;;1.17;0.70;;;;;;;14.70;51.18;96404.44;5059615;28;25003;-72
2022/08/07 01:40:13;;;;;;;2.28;0.80;;;;;;;14.67;51.62;96404.66;5057499;28;24807;-72
2022/08/07 01:42:39;;;;;;;1.38;0.68;;;;;;;14.52;52.06;96400.50;5061299;28;24492;-72
2022/08/07 01:45:07;;;;;;;0.63;0.40;;;;;;;14.36;52.67;96405.91;5062043;28;24497;-72
2022/08/07 01:47:34;;;;;;;0.50;0.50;;;;;;;14.26;52.95;96405.66;5064445;28;24924;-72
2022/08/07 01:50:00;;;;;;;1.88;0.50;;;;;;;14.24;53.44;96406.72;5059250;28;24994;-72
2022/08/07 01:52:31;;;;;;;2.40;0.70;;;;;;;14.07;53.88;96415.66;5065195;28;24431;-72
2022/08/07 01:54:59;;;;;;;1.60;0.60;;;;;;;14.10;53.56;96402.44;5060497;28;24798;-71
2022/08/07 01:57:31;;;;;;;0.88;0.60;;;;;;;14.20;52.40;96403.50;5064196;28;24464;-71
2022/08/07 02:00:02;;;;;;;2.60;0.65;;;;;;;14.36;52.13;96398.06;5053008;28;24447;-71
2022/08/07 02:02:33;;;;;;;1.10;0.50;;;;;;;14.47;52.43;96400.78;5065551;28;24493;-71
2022/08/07 02:05:03;;;;;;;0.63;0.57;;;;;;;14.60;51.47;96394.75;5060966;28;24434;-72
2022/08/07 02:07:36;;;;;;;2.58;0.85;;;;;;;14.69;52.46;96397.56;5062645;28;24443;-72
2022/08/07 02:10:04;;;;;;;2.60;1.10;;;;;;;14.33;50.26;96384.41;5059183;28;24440;-72
2022/08/07 02:12:35;;;;;;;1.15;0.63;;;;;;;14.09;51.29;96390.34;5056728;28;24438;-72
2022/08/07 02:15:04;;;;;;;3.45;0.85;;;;;;;13.95;51.33;96386.06;5054837;28;24535;-72
2022/08/07 02:17:31;;;;;;;1.58;0.70;;;;;;;13.83;51.79;96392.09;5056413;28;24442;-71
2022/08/07 02:20:00;;;;;;;1.33;0.60;;;;;;;14.08;52.31;96385.22;5062334;28;24465;-71
2022/08/07 02:22:29;;;;;;;2.60;0.80;;;;;;;13.98;51.65;96383.25;5058052;28;24441;-72
2022/08/07 02:24:57;;;;;;;0.47;0.40;;;;;;;14.15;53.28;96383.88;5063736;28;24466;-72
2022/08/07 02:27:26;;;;;;;0.73;0.50;;;;;;;14.14;53.50;96380.47;5053244;28;24435;-71
2022/08/07 02:29:57;;;;;;;0.60;0.45;;;;;;;13.97;54.56;96384.16;5059771;28;24434;-71
2022/08/07 02:32:25;;;;;;;0.70;0.40;;;;;;;14.04;53.99;96382.00;5055503;28;24439;-72
2022/08/07 02:34:53;;;;;;;1.30;0.50;;;;;;;13.85;54.71;96376.34;5063702;28;24474;-71
2022/08/07 02:37:21;;;;;;;0.95;0.50;;;;;;;13.74;55.55;96375.28;5062215;28;24443;-71
2022/08/07 02:39:49;;;;;;;2.22;0.75;;;;;;;13.72;55.43;96369.34;5058341;28;24517;-71
2022/08/07 02:42:18;;;;;;;0.60;0.45;;;;;;;13.66;53.52;96364.53;5060380;28;24439;-71
2022/08/07 02:44:48;;;;;;;2.10;0.70;;;;;;;13.71;53.13;96370.28;5060123;28;24454;-71
2022/08/07 02:47:17;;;;;;;1.13;0.63;;;;;;;13.40;53.50;96368.00;5058211;28;24449;-73
2022/08/07 02:49:45;;;;;;;1.27;0.33;;;;;;;13.21;54.45;96369.16;5058423;28;24510;-73
2022/08/07 02:52:17;;;;;;;1.90;0.68;;;;;;;13.15;54.62;96363.50;5060394;28;24430;-71
2022/08/07 02:54:45;;;;;;;1.80;0.60;;;;;;;12.92;55.23;96364.97;5059499;28;24447;-73
2022/08/07 02:57:13;;;;;;;1.38;0.70;;;;;;;13.15;55.14;96363.50;5056764;28;24450;-73
2022/08/07 02:59:44;;;;;;;1.70;0.70;;;;;;;13.24;54.85;96362.97;5058085;28;24462;-72
2022/08/07 03:02:12;;;;;;;0.65;0.60;;;;;;;13.45;55.75;96371.97;5060712;28;24531;-72
2022/08/07 03:04:41;;;;;;;1.58;0.57;;;;;;;13.45;56.69;96366.78;5059091;28;24995;-72
2022/08/07 03:07:08;;;;;;;1.10;0.60;;;;;;;13.26;57.27;96358.47;5060136;22;24491;-75
2022/08/07 03:09:35;;;;;;;3.53;0.77;;;;;;;13.39;56.42;96361.97;5027737;28;24844;-75
2022/08/07 03:12:02;;;;;;;3.07;0.63;;;;;;;13.05;57.66;96363.25;5030117;28;24490;-75
2022/08/07 03:14:29;;;;;;;1.15;0.60;;;;;;;13.12;57.48;96367.13;5029930;28;24444;-76
2022/08/07 03:16:56;;;;;;;1.50;0.63;;;;;;;13.02;57.88;96364.28;5028340;28;24559;-75
2022/08/07 03:19:23;;;;;;;1.40;0.73;;;;;;;12.96;58.33;96363.84;5030560;28;24490;-75
2022/08/07 03:21:52;;;;;;;3.50;0.70;;;;;;;12.90;58.50;96365.03;5031060;28;24439;-75
2022/08/07 03:24:19;;;;;;;1.30;0.60;;;;;;;12.98;58.43;96364.59;5030436;28;24849;-75
2022/08/07 03:26:49;;;;;;;1.45;0.57;;;;;;;13.02;58.09;96368.66;5030925;28;24474;-75
2022/08/07 03:29:16;;;;;;;1.40;0.60;;;;;;;13.09;57.80;96369.94;5030736;28;24442;-75
2022/08/07 03:31:44;;;;;;;2.80;0.70;;;;;;;13.19;57.77;96367.56;5030939;28;24498;-76
2022/08/07 03:34:12;;;;;;;1.37;0.50;;;;;;;13.19;58.00;96365.81;5030555;28;24436;-77
2022/08/07 03:36:40;;;;;;;0.77;0.50;;;;;;;13.03;58.61;96365.13;5029250;28;24523;-76
2022/08/07 03:39:11;;;;;;;1.10;0.60;;;;;;;13.13;58.09;96368.81;5030052;28;24840;-76
2022/08/07 03:41:39;;;;;;;1.33;0.60;;;;;;;13.10;58.45;96369.00;5030588;28;24440;-76
2022/08/07 03:44:06;;;;;;;1.70;0.70;;;;;;;13.12;58.30;96364.53;5030396;28;25307;-76
2022/08/07 03:46:33;;;;;;;5.00;0.67;;;;;;;13.09;58.91;96367.34;5029119;28;24485;-76
2022/08/07 03:49:00;;;;;;;1.48;0.60;;;;;;;12.98;59.00;96362.00;5030227;28;24490;-76
2022/08/07 03:51:28;;;;;;;1.20;0.65;;;;;;;13.02;59.22;96363.47;5030007;28;24984;-76
2022/08/07 03:53:54;;;;;;;0.50;0.40;;;;;;;12.79;60.36;96360.53;5030164;28;24442;-76
2022/08/07 03:56:25;;;;;;;2.35;0.65;;;;;;;12.70;60.51;96366.28;5029800;28;25027;-76
2022/08/07 03:58:51;;;;;;;2.30;0.52;;;;;;;12.65;60.60;96367.53;5029972;28;24431;-76
2022/08/07 04:01:19;;;;;;;1.05;0.50;;;;;;;12.67;60.67;96366.47;5029554;28;24447;-76
2022/08/07 04:03:45;;;;;;;1.02;0.60;;;;;;;12.69;60.39;96371.59;5029356;28;24443;-75
2022/08/07 04:06:12;;;;;;;3.28;0.50;;;;;;;12.46;61.52;96371.25;5029427;28;24451;-75
2022/08/07 04:08:40;;;;;;;0.70;0.60;;;;;;;12.37;61.62;96373.53;5030397;28;24465;-75
2022/08/07 04:11:07;;;;;;;1.30;0.60;;;;;;;12.31;62.37;96379.94;5030052;28;24538;-75
2022/08/07 04:13:36;;;;;;;0.95;0.70;;;;;;;12.35;61.81;96381.44;5030101;28;24423;-75
2022/08/07 04:16:03;;;;;;;1.42;0.70;;;;;;;12.32;62.09;96385.03;5030232;28;24447;-75
2022/08/07 04:18:30;;;;;;;1.40;0.60;;;;;;;12.45;61.61;96392.09;5030053;28;24435;-77
2022/08/07 04:20:56;;;;;;;1.90;0.80;;;;;;;12.42;61.90;96394.88;5029551;28;24861;-76
2022/08/07 04:23:25;;;;;;;2.60;0.65;;;;;;;12.54;61.46;96394.97;5030079;28;24447;-76
2022/08/07 04:25:53;;;;;;;1.17;0.60;;;;;;;12.60;61.35;96386.78;5029777;28;24447;-76
2022/08/07 04:28:20;;;;;;;1.30;0.47;;;;;;;12.69;61.23;96394.97;5029566;28;25026;-76
2022/08/07 04:30:49;;;;;;;1.53;0.40;;;;;;;12.63;62.12;96395.34;5029513;28;24462;-76
2022/08/07 04:33:17;;;;;;;1.00;0.60;;;;;;;12.65;62.33;96396.09;5029647;28;24431;-76
2022/08/07 04:35:44;;;;;;;1.45;0.60;;;;;;;12.73;62.17;96389.50;5029993;28;24494;-76
2022/08/07 04:38:11;;;;;;;0.60;0.50;;;;;;;12.83;61.88;96395.81;5029554;28;24440;-75
2022/08/07 04:40:40;;;;;;;0.68;0.57;;;;;;;12.89;61.89;96383.34;5023696;28;24459;-75
2022/08/07 04:43:07;;;;;;;1.38;0.50;;;;;;;12.87;62.20;96386.06;5029823;28;24438;-78
2022/08/07 04:45:40;;;;;;;1.27;0.70;;;;;;;12.94;62.14;96389.09;5029258;28;24440;-76
2022/08/07 04:48:12;;;;;;;1.80;0.52;;;;;;;12.97;62.83;96391.50;5029556;28;24443;-76
2022/08/07 04:50:49;;;;;;;1.50;0.73;;;;;;;13.12;62.86;96395.72;5029447;28;24522;-76
2022/08/07 04:53:21;;;;;;;1.25;0.70;;;;;;;13.09;63.48;96388.16;5029405;28;24432;-76
2022/08/07 04:55:53;;;;;;;1.70;0.70;;;;;;;13.07;63.00;96393.44;5029516;28;24440;-75
2022/08/07 04:58:26;;;;;;;1.23;0.77;;;;;;;13.17;62.86;96385.91;5029343;28;24987;-75
2022/08/07 05:00:56;;;;;;;1.80;0.60;;;;;;;13.36;64.03;96387.34;5029560;28;24451;-75
2022/08/07 05:03:29;;;;;;;7.60;1.20;;;;;;;13.45;62.49;96386.75;5021681;28;24856;-74
2022/08/07 05:06:02;;;;;;;0.73;0.50;;;;;;;13.58;63.41;96386.81;5029598;28;24431;-76
2022/08/07 05:08:43;;;;;;;2.13;0.80;;;;;;;13.52;63.86;96388.03;5022304;28;24435;-76
2022/08/07 05:11:13;;;;;;;1.27;0.80;;;;;;;13.63;63.83;96389.94;5026653;28;24478;-76
2022/08/07 05:13:47;;;;;;;1.93;0.60;;;;;;;13.79;63.67;96380.19;5025210;28;25108;-76
2022/08/07 05:16:16;;;;;;;1.05;0.63;;;;;;;13.72;64.44;96390.19;5030985;28;24444;-74
2022/08/07 05:18:50;;;;;;;0.93;0.60;;;;;;;13.91;64.13;96397.63;5033096;28;24431;-74
2022/08/07 05:21:21;;;;;;;2.53;0.68;;;;;;;13.92;64.75;96395.84;5032442;28;24451;-74
2022/08/07 05:23:51;;;;;;;1.13;0.70;;;;;;;14.18;62.32;96401.94;5033269;28;24427;-74
2022/08/07 05:26:22;;;;;;;1.17;0.57;;;;;;;14.11;62.51;96404.09;5024723;28;24452;-76
2022/08/07 05:28:51;;;;;;;1.33;0.70;;;;;;;14.33;63.49;96408.69;5027112;28;24446;-74
2022/08/07 05:31:19;;;;;;;1.47;0.70;;;;;;;14.40;62.66;96409.97;5029815;28;24444;-75
2022/08/07 05:33:49;;;;;;;1.83;0.63;;;;;;;14.51;64.29;96409.25;5032252;28;25023;-76
2022/08/07 05:36:16;;;;;;;0.98;0.70;;;;;;;14.66;63.44;96410.81;5027564;28;24510;-76
2022/08/07 05:38:43;;;;;;;1.45;0.63;;;;;;;14.88;63.61;96411.94;5031544;28;24439;-75
2022/08/07 05:41:11;;;;;;;2.80;1.00;;;;;;;15.13;64.74;96424.06;5030153;28;24506;-75
2022/08/07 05:43:39;;;;;;;1.27;0.60;;;;;;;15.30;61.24;96415.91;5032686;28;24451;-75
2022/08/07 05:46:06;;;;;;;1.45;0.73;;;;;;;15.44;58.86;96414.91;5032226;28;24446;-75
2022/08/07 05:48:32;;;;;;;1.98;0.73;;;;;;;15.61;58.59;96418.91;5031525;28;24486;-75
2022/08/07 05:51:02;;;;;;;2.30;1.10;;;;;;;15.75;57.21;96428.38;5032464;28;24794;-77
2022/08/07 05:53:28;;;;;;;0.70;0.50;;;;;;;15.91;57.13;96424.56;5029587;28;24443;-75
2022/08/07 05:55:57;;;;;;;2.28;0.90;;;;;;;15.96;56.21;96432.88;5032129;28;25008;-75
2022/08/07 05:58:26;;;;;;;3.15;0.90;;;;;;;16.13;59.26;96429.03;5026063;28;24490;-76
2022/08/07 06:00:53;;;;;;;3.08;1.00;;;;;;;16.38;59.25;96433.22;5031768;28;24482;-76
2022/08/07 06:03:22;;;;;;;1.20;0.80;;;;;;;16.57;58.47;96437.06;5026387;28;24463;-75
2022/08/07 06:05:50;;;;;;;1.52;1.00;;;;;;;16.75;58.98;96430.44;5031917;28;24797;-73
2022/08/07 06:08:18;;;;;;;2.05;1.30;;;;;;;17.22;58.28;96425.94;5030554;28;24485;-74
2022/08/07 06:10:45;;;;;;;2.83;1.80;;;;;;;17.41;58.07;96422.69;5030312;28;24435;-74
2022/08/07 06:13:12;;;;;;;2.20;1.17;;;;;;;17.42;58.46;96429.56;5030479;28;24494;-74
2022/08/07 06:15:40;;;;;;;2.33;1.20;;;;;;;17.39;58.83;96428.06;5030709;28;24443;-74
2022/08/07 06:18:07;;;;;;;3.35;1.45;;;;;;;17.72;57.76;96436.75;5028304;28;24448;-74
2022/08/07 06:20:36;;;;;;;1.93;1.70;;;;;;;17.66;58.77;96435.47;5030296;28;24494;-74
2022/08/07 06:23:04;;;;;;;3.90;1.60;;;;;;;17.56;60.00;96425.84;5030587;28;24486;-74
2022/08/07 06:25:32;;;;;;;2.45;1.67;;;;;;;17.70;59.91;96428.19;5029291;28;24455;-74
2022/08/07 06:28:02;;;;;;;2.97;2.13;;;;;;;17.60;60.94;96430.72;5030885;28;25104;-74
2022/08/07 06:30:29;;;;;;;5.47;2.10;;;;;;;17.99;62.66;96433.72;5026658;28;24439;-74
2022/08/07 06:32:55;;;;;;;3.90;2.45;;;;;;;18.22;61.99;96433.63;5031549;28;25014;-74
2022/08/07 06:35:22;;;;;;;2.50;2.10;;;;;;;18.37;62.79;96430.53;5031456;28;24493;-75
2022/08/07 06:37:48;;;;;;;1.83;1.20;;;;;;;18.47;56.87;96421.91;5025389;28;24497;-74
2022/08/07 06:40:15;;;;;;;1.98;1.27;;;;;;;18.59;56.07;96426.13;5031015;28;24443;-73
2022/08/07 06:42:46;;;;;;;2.28;1.95;;;;;;;18.83;61.04;96417.97;5030754;28;24466;-74
2022/08/07 06:45:15;;;;;;;3.00;2.10;;;;;;;18.95;62.08;96430.06;5031299;28;24532;-71
2022/08/07 06:47:42;;;;;;;2.60;2.33;;;;;;;19.41;61.77;96420.81;5025165;28;24443;-71
2022/08/07 06:50:09;;;;;;;4.93;2.35;;;;;;;19.44;62.32;96430.22;5027616;28;24442;-74
2022/08/07 06:52:39;;;;;;;3.57;2.10;;;;;;;19.40;61.49;96426.22;5025293;28;25003;-72
2022/08/07 06:55:10;;;;;;;2.92;2.50;;;;;;;19.71;62.94;96425.16;5031013;28;24771;-73
2022/08/07 06:57:38;;;;;;;3.20;2.30;;;;;;;19.86;61.22;96430.03;5031007;28;24443;-70
2022/08/07 07:00:07;;;;;;;4.97;2.47;;;;;;;19.99;59.93;96425.34;5030602;28;24474;-76
2022/08/07 07:02:35;;;;;;;3.50;2.40;;;;;;;20.09;62.23;96428.78;5029464;28;24475;-76
2022/08/07 07:05:02;;;;;;;4.38;2.72;;;;;;;20.09;62.44;96427.94;5029813;28;24427;-76
2022/08/07 07:07:29;;;;;;;4.07;2.20;;;;;;;20.03;61.50;96427.56;5027170;28;24447;-75
2022/08/07 07:09:55;;;;;;;2.92;2.65;;;;;;;19.82;61.34;96424.22;5023002;28;24441;-76
2022/08/07 07:12:36;;;;;;;2.58;2.25;;;;;;;20.11;61.04;96424.22;5026990;28;24426;-75
2022/08/07 07:15:11;;;;;;;2.33;2.10;;;;;;;20.15;60.73;96422.16;5028760;28;24434;-75
2022/08/07 07:17:43;;;;;;;3.22;2.13;;;;;;;20.30;58.54;96424.19;5026299;28;24436;-75
2022/08/07 07:20:16;;;;;;;2.83;2.00;;;;;;;20.46;59.23;96426.25;5022806;28;24498;-75
2022/08/07 07:22:44;;;;;;;2.53;1.90;;;;;;;20.52;58.25;96428.34;5026171;28;24455;-75
2022/08/07 07:25:12;;;;;;;2.65;2.00;;;;;;;20.53;58.24;96422.09;5019386;28;24436;-76
2022/08/07 07:27:44;;;;;;;3.23;2.03;;;;;;;20.68;57.69;96413.78;5030128;28;24435;-76
2022/08/07 07:30:13;;;;;;;4.35;2.20;;;;;;;20.88;57.33;96411.91;5030451;28;24432;-75
2022/08/07 07:32:41;;;;;;;4.80;2.13;;;;;;;20.96;57.27;96409.38;5030122;28;24868;-75
2022/08/07 07:35:10;;;;;;;2.22;1.92;;;;;;;20.95;57.05;96415.59;5030389;28;24438;-75
2022/08/07 07:37:41;;;;;;;2.20;2.00;;;;;;;21.06;56.24;96411.97;5025853;28;24871;-76
2022/08/07 07:40:14;;;;;;;4.10;1.90;;;;;;;21.31;55.40;96415.72;5027679;28;24975;-76
2022/08/07 07:42:42;;;;;;;3.08;2.28;;;;;;;21.42;55.57;96418.19;5029937;28;25012;-76
2022/08/07 07:45:14;;;;;;;3.95;2.05;;;;;;;21.57;54.43;96408.81;5023289;28;24802;-76
2022/08/07 07:47:43;;;;;;;2.70;1.98;;;;;;;21.84;53.56;96410.56;5026175;28;24453;-76
2022/08/07 07:50:11;;;;;;;2.47;1.85;;;;;;;21.92;54.33;96410.66;5030064;28;25007;-76
2022/08/07 07:52:39;;;;;;;4.32;2.25;;;;;;;22.19;51.36;96406.28;5030119;28;24428;-76
2022/08/07 07:55:07;;;;;;;2.40;1.58;;;;;;;22.09;50.44;96402.88;5030094;28;24501;-76
2022/08/07 07:57:35;;;;;;;3.88;2.00;;;;;;;22.05;50.49;96407.63;5030043;28;24439;-76
2022/08/07 08:00:03;;;;;;;2.30;1.77;;;;;;;21.77;50.10;96408.66;5030297;28;24447;-76
2022/08/07 08:02:35;;;;;;;2.05;1.70;;;;;;;21.82;50.02;96404.63;5029418;28;24794;-76
2022/08/07 08:05:03;;;;;;;2.50;1.50;;;;;;;21.64;48.30;96401.13;5027617;28;24439;-75
2022/08/07 08:07:30;;;;;;;11.20;1.80;;;;;;;21.75;50.11;96399.09;5029800;28;24440;-75
2022/08/07 08:09:58;;;;;;;2.00;1.70;;;;;;;21.53;49.14;96399.53;5028574;28;24817;-72
2022/08/07 08:12:25;;;;;;;2.38;1.50;;;;;;;21.83;49.15;96398.34;5029590;28;24440;-73
2022/08/07 08:14:52;;;;;;;2.20;1.30;;;;;;;22.01;47.45;96397.53;5025809;28;24841;-73
2022/08/07 08:17:21;;;;;;;1.35;1.00;;;;;;;22.18;47.87;96396.72;5024359;28;24436;-72
2022/08/07 08:19:52;;;;;;;2.10;1.25;;;;;;;22.38;45.85;96400.81;5024131;28;24432;-74
2022/08/07 08:27:55;;;;;;;2.30;1.20;;;;;;;22.19;45.55;96395.72;5025259;28;24490;-77
2022/08/07 08:30:24;;;;;;;4.18;1.05;;;;;;;22.64;46.86;96398.19;5028597;28;24493;-77
2022/08/07 08:32:54;;;;;;;1.48;1.10;;;;;;;22.49;44.60;96397.09;5025779;28;24432;-76
2022/08/07 08:35:25;;;;;;;2.17;1.20;;;;;;;22.16;46.15;96393.41;5029990;28;24861;-75
2022/08/07 08:37:57;;;;;;;2.67;1.20;;;;;;;22.60;46.59;96399.47;5029605;28;24444;-76
2022/08/07 08:40:30;;;;;;;1.27;0.93;;;;;;;23.02;43.85;96387.34;5025809;28;25186;-77
2022/08/07 08:43:03;;;;;;;2.50;1.10;;;;;;;23.24;44.01;96381.50;5025948;28;24459;-77
2022/08/07 08:45:37;;;;;;;1.02;0.93;;;;;;;23.24;43.11;96396.53;5030920;28;24436;-78
2022/08/07 08:48:09;;;;;;;1.42;1.00;;;;;;;23.34;43.17;96384.84;5032820;28;24443;-78
2022/08/07 08:50:44;;;;;;;2.50;1.30;;;;;;;23.53;42.57;96382.91;5026282;28;25031;-77
2022/08/07 08:53:19;;;;;;;2.40;1.00;;;;;;;23.15;43.26;96387.75;5033920;28;24440;-78
2022/08/07 08:55:50;;;;;;;1.77;1.20;;;;;;;22.88;44.19;96386.13;5033908;28;24424;-77
2022/08/07 08:58:22;;;;;;;1.88;1.15;;;;;;;22.98;45.61;96391.31;5034236;28;24432;-78
2022/08/07 09:00:52;;;;;;;1.60;1.30;;;;;;;23.20;45.52;96377.53;5034977;28;24507;-77
2022/08/07 09:03:29;;;;;;;2.05;1.58;;;;;;;23.49;44.40;96386.88;5025798;28;24440;-77
2022/08/07 09:06:03;;;;;;;1.85;1.30;;;;;;;23.61;42.52;96377.63;5034923;28;24434;-78
2022/08/07 09:08:40;;;;;;;2.80;1.23;;;;;;;23.79;43.35;96385.47;5035123;28;24436;-78
2022/08/07 09:11:16;;;;;;;1.30;0.90;;;;;;;23.89;41.43;96378.22;5031192;28;24436;-77
2022/08/07 09:13:54;;;;;;;1.50;1.20;;;;;;;23.84;40.55;96376.06;5028247;28;24511;-77
2022/08/07 09:16:33;;;;;;;1.73;1.17;;;;;;;24.08;40.12;96385.00;5033153;28;24466;-77
2022/08/07 09:19:15;;;;;;;1.38;0.95;;;;;;;24.01;37.94;96384.81;5033193;28;24489;-76
2022/08/07 09:21:52;;;;;;;1.27;1.00;;;;;;;23.71;38.23;96381.00;5036282;28;24459;-77
2022/08/07 09:24:31;;;;;;;1.10;0.98;;;;;;;23.31;39.99;96379.03;5029717;28;24440;-78
2022/08/07 09:27:07;;;;;;;1.33;0.93;;;;;;;23.15;41.09;96383.28;5028342;28;24435;-78
2022/08/07 09:29:46;;;;;;;2.15;1.25;;;;;;;23.37;40.03;96389.00;5033185;28;24435;-76
2022/08/07 09:32:22;;;;;;;2.03;1.00;;;;;;;23.43;40.02;96380.38;5032299;28;24961;-77
2022/08/07 09:34:58;;;;;;;1.35;1.00;;;;;;;23.90;40.60;96374.56;5032496;28;24972;-76
2022/08/07 09:37:36;;;;;;;4.57;1.20;;;;;;;24.08;39.80;96380.53;5029004;28;24992;-73
2022/08/07 09:40:08;;;;;;;2.60;1.00;;;;;;;24.14;38.15;96379.06;5032209;28;24880;-75
2022/08/07 09:42:48;;;;;;;2.50;1.23;;;;;;;24.19;37.68;96374.06;5032224;28;24447;-73
2022/08/07 09:45:20;;;;;;;1.80;0.80;;;;;;;24.49;37.50;96374.41;5032448;28;25008;-73
2022/08/07 09:48:00;;;;;;;1.50;0.87;;;;;;;24.62;36.87;96374.69;5033004;28;24455;-74
2022/08/07 09:50:39;;;;;;;1.98;0.80;;;;;;;24.61;34.68;96376.53;5028984;28;24440;-74
2022/08/07 09:53:09;;;;;;;2.22;1.00;;;;;;;24.43;34.42;96364.47;5032210;28;24434;-73
2022/08/07 09:55:56;;;;;;;3.28;0.90;;;;;;;24.38;33.65;96381.66;5031723;28;24981;-74
2022/08/07 09:58:57;;;;;;;1.60;0.70;;;;;;;24.48;35.28;96376.22;5029913;28;24439;-75
2022/08/07 10:01:48;;;;;;;1.35;0.70;;;;;;;24.35;34.91;96366.09;5031126;28;24446;-74
2022/08/07 10:04:27;;;;;;;1.90;0.95;;;;;;;24.14;34.77;96358.69;5029830;28;24507;-74
2022/08/07 10:07:13;;;;;;;2.40;0.70;;;;;;;24.18;35.60;96351.25;5031883;28;24501;-75
2022/08/07 10:09:53;;;;;;;0.80;0.73;;;;;;;24.20;34.53;96359.84;5031537;28;24440;-75
2022/08/07 10:12:40;;;;;;;1.50;0.75;;;;;;;24.51;33.64;96353.88;5032114;28;24916;-74
2022/08/07 10:15:24;;;;;;;3.38;0.80;;;;;;;24.34;34.06;96356.53;5031761;28;25008;-74
2022/08/07 10:18:16;;;;;;;1.50;0.75;;;;;;;24.29;34.07;96344.81;5031029;28;24440;-74
2022/08/07 10:21:00;;;;;;;1.27;1.00;;;;;;;24.62;33.81;96334.97;5026626;28;24439;-75
2022/08/07 10:23:49;;;;;;;1.43;0.73;;;;;;;24.79;33.18;96311.91;5023694;28;24505;-73
2022/08/07 10:26:29;;;;;;;3.40;0.90;;;;;;;24.87;32.71;96333.06;5030426;28;24447;-74
2022/08/07 10:29:11;;;;;;;1.33;0.77;;;;;;;24.49;32.67;96330.22;5031239;28;24509;-74
2022/08/07 10:31:53;;;;;;;1.67;0.83;;;;;;;24.87;33.93;96325.94;5029510;28;24841;-73
2022/08/07 10:34:36;;;;;;;1.17;0.80;;;;;;;25.21;32.98;96324.00;5032111;28;24435;-74
2022/08/07 10:37:18;;;;;;;1.55;0.80;;;;;;;25.53;32.00;96321.16;5028914;28;24502;-73
2022/08/07 10:39:58;;;;;;;1.13;0.60;;;;;;;25.33;31.35;96323.47;5029258;28;24493;-75
2022/08/07 10:42:34;;;;;;;1.95;0.80;;;;;;;25.35;31.41;96324.09;5020050;28;24551;-74
2022/08/07 10:45:06;;;;;;;2.40;0.60;;;;;;;25.16;31.75;96315.75;5025701;28;25019;-74
2022/08/07 10:47:40;;;;;;;1.80;0.63;;;;;;;25.32;32.85;96313.00;5029860;28;24861;-76
2022/08/07 10:50:12;;;;;;;1.00;0.70;;;;;;;25.35;32.01;96324.09;5031260;28;24477;-74
2022/08/07 10:52:49;;;;;;;1.00;0.60;;;;;;;25.35;33.40;96315.31;5027166;28;24440;-74
2022/08/07 10:55:20;;;;;;;1.73;0.90;;;;;;;24.98;31.32;96322.09;5031266;28;24455;-74
2022/08/07 10:58:03;;;;;;;1.60;0.50;;;;;;;25.27;32.76;96310.06;5031220;28;24805;-74
2022/08/07 11:00:34;;;;;;;1.35;0.77;;;;;;;25.23;31.25;96312.25;5023683;28;24523;-74
2022/08/07 11:03:10;;;;;;;3.03;0.80;;;;;;;25.51;31.24;96309.06;5031001;28;25318;-76
2022/08/07 11:05:44;;;;;;;1.33;0.65;;;;;;;25.43;31.20;96306.50;5031290;28;24873;-77
2022/08/07 11:08:19;;;;;;;3.10;0.80;;;;;;;25.27;31.21;96294.97;5029620;28;24447;-75
2022/08/07 11:10:52;;;;;;;0.77;0.50;;;;;;;25.32;30.76;96300.56;5031086;28;24439;-76
2022/08/07 11:13:24;;;;;;;2.38;1.05;;;;;;;25.40;30.73;96301.53;5024881;28;24455;-76
2022/08/07 11:15:55;;;;;;;1.27;0.68;;;;;;;25.69;29.88;96293.69;5026627;28;24447;-76
2022/08/07 11:18:29;;;;;;;1.23;0.55;;;;;;;25.35;29.40;96297.59;5030742;28;24443;-76
2022/08/07 11:21:02;;;;;;;2.03;0.80;;;;;;;24.99;30.35;96297.28;5027103;28;25270;-77
2022/08/07 11:23:39;;;;;;;1.55;0.68;;;;;;;25.28;30.32;96299.28;5023472;28;24992;-76
2022/08/07 11:26:13;;;;;;;2.10;0.73;;;;;;;25.25;30.34;96294.34;5028847;28;25004;-77
2022/08/07 11:28:49;;;;;;;1.10;0.80;;;;;;;25.47;30.51;96287.38;5030563;28;24440;-77
2022/08/07 11:31:23;;;;;;;1.70;0.60;;;;;;;25.20;29.58;96285.25;5030479;28;24826;-76
2022/08/07 11:33:57;;;;;;;1.23;0.80;;;;;;;25.10;30.38;96274.88;5030333;28;24486;-76
2022/08/07 11:36:47;;;;;;;1.35;0.70;;;;;;;25.20;30.34;96275.47;5030106;28;24497;-75
2022/08/07 11:39:25;;;;;;;1.67;0.77;;;;;;;25.22;29.90;96254.09;5022088;28;24443;-75
2022/08/07 11:41:59;;;;;;;0.95;0.55;;;;;;;25.26;31.40;96280.09;5030675;28;24428;-77
2022/08/07 11:44:38;;;;;;;1.63;0.50;;;;;;;25.22;29.72;96273.50;5030411;28;24493;-76
2022/08/07 11:47:12;;;;;;;1.23;0.77;;;;;;;24.98;29.63;96282.34;5030493;28;24436;-74
2022/08/07 11:50:02;;;;;;;0.75;0.60;;;;;;;24.67;30.24;96276.22;5029929;28;25031;-75
2022/08/07 11:52:45;;;;;;;1.00;0.55;;;;;;;24.85;31.13;96267.03;5023303;28;24475;-76
2022/08/07 11:55:25;;;;;;;1.20;0.57;;;;;;;25.31;30.09;96266.28;5030448;28;24436;-75
2022/08/07 11:58:02;;;;;;;1.52;0.70;;;;;;;25.39;30.04;96273.38;5026695;28;25035;-75